createdAt,value
2019-01-21T00:00:42.777Z,57.27
2019-01-21T00:03:47.669Z,57.33
2019-01-21T00:06:52.117Z,58.97
2019-01-21T00:09:56.824Z,56.97
2019-01-21T00:13:01.553Z,57.87
2019-01-21T00:16:06.293Z,55.07
2019-01-21T00:19:10.723Z,60.80
2019-01-21T00:22:15.183Z,60.83
2019-01-21T00:25:19.628Z,60.73
2019-01-21T00:28:24.083Z,60.77
2019-01-21T00:31:28.816Z,60.43
2019-01-21T00:34:33.252Z,61.37
2019-01-21T00:37:37.701Z,61.83
2019-01-21T00:40:42.151Z,58.77
2019-01-21T00:43:46.599Z,64.30
2019-01-21T00:46:51.340Z,63.40
2019-01-21T00:49:56.073Z,59.80
2019-01-21T00:53:00.517Z,64.70
2019-01-21T00:56:04.981Z,62.20
2019-01-21T00:59:09.428Z,62.90
2019-01-21T01:02:14.168Z,63.07
2019-01-21T01:05:19.714Z,59.17
2019-01-21T01:08:24.162Z,58.53
2019-01-21T01:11:28.620Z,62.17
2019-01-21T01:14:33.067Z,62.70
2019-01-21T01:17:37.520Z,61.60
2019-01-21T01:20:41.962Z,60.47
2019-01-21T01:23:46.670Z,58.57
2019-01-21T01:26:51.120Z,56.77
2019-01-21T01:29:55.555Z,58.30
2019-01-21T01:33:00.016Z,54.57
2019-01-21T01:36:04.532Z,54.87
2019-01-21T01:39:09.403Z,60.80
2019-01-21T01:42:13.850Z,54.77
2019-01-21T01:45:22.043Z,58.90
2019-01-21T01:48:26.871Z,50.63
2019-01-21T01:51:31.315Z,57.03
2019-01-21T01:54:35.771Z,53.60
2019-01-21T01:57:40.224Z,54.87
2019-01-21T02:00:44.661Z,57.07
2019-01-21T02:03:49.110Z,53.83
2019-01-21T02:06:53.839Z,52.93
2019-01-21T02:09:58.465Z,53.13
2019-01-21T02:13:02.984Z,54.30
2019-01-21T02:16:07.415Z,51.80
2019-01-21T02:19:12.134Z,52.70
2019-01-21T02:22:17.414Z,50.87
2019-01-21T02:25:26.102Z,51.93
2019-01-21T02:28:55.933Z,51.80
2019-01-21T02:32:28.859Z,49.23
2019-01-21T02:35:38.033Z,50.97
2019-01-21T02:39:11.120Z,59.43
2019-01-21T02:42:55.194Z,48.83
2019-01-21T02:46:19.594Z,54.07
2019-01-21T02:49:49.838Z,49.00
2019-01-21T02:53:16.973Z,51.37
2019-01-21T02:56:44.207Z,50.03
2019-01-21T03:00:02.482Z,51.23
2019-01-21T03:03:23.462Z,48.70
2019-01-21T03:06:38.223Z,50.87
2019-01-21T03:10:07.362Z,49.20
2019-01-21T03:13:34.229Z,47.63
2019-01-21T03:17:00.613Z,49.83
2019-01-21T03:20:30.465Z,47.17
2019-01-21T03:23:52.195Z,48.27
2019-01-21T03:27:26.009Z,54.53
2019-01-21T03:31:22.539Z,48.33
2019-01-21T03:34:43.874Z,49.83
2019-01-21T03:38:18.920Z,48.00
2019-01-21T03:41:34.089Z,46.10
2019-01-21T03:45:16.388Z,48.20
2019-01-21T03:48:28.510Z,47.17
2019-01-21T03:52:00.189Z,48.00
2019-01-21T03:55:09.555Z,47.03
2019-01-21T03:58:44.468Z,48.53
2019-01-21T04:01:56.102Z,43.27
2019-01-21T04:05:27.527Z,48.43
2019-01-21T04:08:57.108Z,47.07
2019-01-21T04:12:17.919Z,47.70
2019-01-21T04:15:41.900Z,46.30
2019-01-21T04:19:13.248Z,45.60
2019-01-21T04:22:31.080Z,47.93
2019-01-21T04:25:48.371Z,49.70
2019-01-21T04:29:12.601Z,48.17
2019-01-21T04:32:33.236Z,46.77
2019-01-21T04:36:04.778Z,56.57
2019-01-21T04:39:13.939Z,48.67
2019-01-21T04:42:44.385Z,46.23
2019-01-21T04:46:02.073Z,48.73
2019-01-21T04:49:25.747Z,46.43
2019-01-21T04:52:53.313Z,45.07
2019-01-21T04:56:22.415Z,44.13
2019-01-21T04:59:37.483Z,46.00
2019-01-21T05:03:24.610Z,48.67
2019-01-21T05:07:05.327Z,46.77
2019-01-21T05:10:23.123Z,48.73
2019-01-21T05:13:50.009Z,47.87
2019-01-21T05:17:14.369Z,48.70
2019-01-21T05:20:43.283Z,48.90
2019-01-21T05:24:25.753Z,45.53
2019-01-21T05:27:37.516Z,49.33
2019-01-21T05:30:52.593Z,48.53
2019-01-21T05:34:16.836Z,47.23
2019-01-21T05:37:37.834Z,48.97
2019-01-21T05:41:23.244Z,47.70
2019-01-21T05:45:14.356Z,42.80
2019-01-21T05:48:56.559Z,50.77
2019-01-21T05:52:37.537Z,48.40
2019-01-21T05:56:01.539Z,45.80
2019-01-21T05:59:22.876Z,44.93
2019-01-21T06:02:58.419Z,46.17
2019-01-21T06:06:19.690Z,46.40
2019-01-21T06:09:34.993Z,47.20
2019-01-21T06:12:59.048Z,45.30
2019-01-21T06:16:20.495Z,50.27
2019-01-21T06:19:35.793Z,49.53
2019-01-21T06:23:13.537Z,48.53
2019-01-21T06:26:39.007Z,45.77
2019-01-21T06:30:00.022Z,50.10
2019-01-21T06:33:38.120Z,43.10
2019-01-21T06:36:55.980Z,44.73
2019-01-21T06:40:28.346Z,49.40
2019-01-21T06:43:51.714Z,49.67
2019-01-21T06:47:06.300Z,48.47
2019-01-21T06:50:30.708Z,51.28
2019-01-21T06:53:54.835Z,48.13
2019-01-21T06:57:37.322Z,45.67
2019-01-21T07:01:27.497Z,45.90
2019-01-21T07:05:08.543Z,45.97
2019-01-21T07:08:53.617Z,47.20
2019-01-21T07:12:12.066Z,44.67
2019-01-21T07:15:51.817Z,46.30
2019-01-21T07:19:10.948Z,47.10
2019-01-21T07:22:29.862Z,42.37
2019-01-21T07:26:15.358Z,44.27
2019-01-21T07:29:53.549Z,46.83
2019-01-21T07:33:19.377Z,43.83
2019-01-21T07:36:46.845Z,46.07
2019-01-21T07:40:02.024Z,44.67
2019-01-21T07:43:19.549Z,43.33
2019-01-21T07:46:49.340Z,42.90
2019-01-21T07:50:13.370Z,46.73
2019-01-21T07:53:51.059Z,50.83
2019-01-21T07:57:25.574Z,45.57
2019-01-21T08:00:52.730Z,49.83
2019-01-21T08:04:21.122Z,48.23
2019-01-21T08:07:42.240Z,51.03
2019-01-21T08:11:10.467Z,49.97
2019-01-21T08:14:43.406Z,48.60
2019-01-21T08:18:32.683Z,46.40
2019-01-21T08:22:15.076Z,45.20
2019-01-21T08:25:35.621Z,48.77
2019-01-21T08:28:56.383Z,45.00
2019-01-21T08:32:17.298Z,47.00
2019-01-21T08:35:35.769Z,52.40
2019-01-21T08:38:56.691Z,46.97
2019-01-21T08:42:12.164Z,41.63
2019-01-21T08:45:49.049Z,44.97
2019-01-21T08:49:21.944Z,47.63
2019-01-21T08:52:42.856Z,42.20
2019-01-21T08:56:15.546Z,48.07
2019-01-21T08:59:30.549Z,48.53
2019-01-21T09:02:48.273Z,48.63
2019-01-21T09:06:03.169Z,43.13
2019-01-21T09:09:17.919Z,39.93
2019-01-21T09:12:51.247Z,42.97
2019-01-21T09:16:26.433Z,40.93
2019-01-21T09:19:47.256Z,41.67
2019-01-21T09:23:10.685Z,49.00
2019-01-21T09:26:37.791Z,41.53
2019-01-21T09:29:55.813Z,41.37
2019-01-21T09:33:16.787Z,48.90
2019-01-21T09:36:34.963Z,38.80
2019-01-21T09:40:14.266Z,41.10
2019-01-21T09:43:44.202Z,44.63
2019-01-21T09:46:47.255Z,42.77
2019-01-21T09:49:51.957Z,44.33
2019-01-21T09:52:57.489Z,41.37
2019-01-21T09:56:03.081Z,42.90
2019-01-21T09:59:07.973Z,44.20
2019-01-21T10:02:12.908Z,43.13
2019-01-21T10:05:17.738Z,36.93
2019-01-21T10:08:29.850Z,35.53
2019-01-21T10:11:47.595Z,34.50
2019-01-21T10:14:59.786Z,33.67
2019-01-21T10:18:14.551Z,38.33
2019-01-21T10:21:35.363Z,38.83
2019-01-21T10:25:02.211Z,39.50
2019-01-21T10:28:23.430Z,41.73
2019-01-21T10:32:02.772Z,38.00
2019-01-21T10:35:41.974Z,32.77
2019-01-21T10:39:11.767Z,37.50
2019-01-21T10:42:38.074Z,33.03
2019-01-21T10:46:11.381Z,39.33
2019-01-21T10:49:23.780Z,38.03
2019-01-21T10:52:51.024Z,36.57
2019-01-21T10:56:12.047Z,36.83
2019-01-21T10:59:30.157Z,37.93
2019-01-21T11:03:14.411Z,37.87
2019-01-21T11:06:49.493Z,33.50
2019-01-21T11:10:30.678Z,36.93
2019-01-21T11:14:06.431Z,35.53
2019-01-21T11:17:27.429Z,39.47
2019-01-21T11:20:59.184Z,32.67
2019-01-21T11:24:31.047Z,40.33
2019-01-21T11:28:07.367Z,35.23
2019-01-21T11:31:40.856Z,42.10
2019-01-21T11:35:02.052Z,37.83
2019-01-21T11:38:33.527Z,36.83
2019-01-21T11:42:08.458Z,39.80
2019-01-21T11:45:32.611Z,38.70
2019-01-21T11:49:11.938Z,41.23
2019-01-21T11:52:26.719Z,33.37
2019-01-21T11:55:38.640Z,39.33
2019-01-21T11:58:56.698Z,37.67
2019-01-21T12:02:08.288Z,44.60
2019-01-21T12:05:26.369Z,35.67
2019-01-21T12:08:55.983Z,39.60
2019-01-21T12:12:05.398Z,36.53
2019-01-21T12:15:29.339Z,39.03
2019-01-21T12:18:50.910Z,37.03
2019-01-21T12:22:25.843Z,34.30
2019-01-21T12:25:44.093Z,38.40
2019-01-21T12:28:58.852Z,37.10
2019-01-21T12:32:22.951Z,34.10
2019-01-21T12:35:44.343Z,36.23
2019-01-21T12:39:16.264Z,32.60
2019-01-21T12:42:28.137Z,37.20
2019-01-21T12:45:49.122Z,32.50
2019-01-21T12:49:10.043Z,31.57
2019-01-21T12:52:21.740Z,35.90
2019-01-21T12:55:51.772Z,32.20
2019-01-21T12:59:06.983Z,32.73
2019-01-21T13:02:22.321Z,33.13
2019-01-21T13:05:48.454Z,33.57
2019-01-21T13:09:12.488Z,34.90
2019-01-21T13:12:42.367Z,35.27
2019-01-21T13:15:57.333Z,35.33
2019-01-21T13:19:39.738Z,35.10
2019-01-21T13:22:51.785Z,33.90
2019-01-21T13:26:35.645Z,34.30
2019-01-21T13:29:45.144Z,37.83
2019-01-21T13:32:59.772Z,33.00
2019-01-21T13:36:23.962Z,33.87
2019-01-21T13:40:01.824Z,36.80
2019-01-21T13:43:40.477Z,36.07
2019-01-21T13:47:02.261Z,34.10
2019-01-21T13:50:37.199Z,31.63
2019-01-21T13:54:13.848Z,34.10
2019-01-21T13:57:42.458Z,33.70
2019-01-21T14:01:09.818Z,32.97
2019-01-21T14:04:36.373Z,35.73
2019-01-21T14:08:00.786Z,36.40
2019-01-21T14:11:29.521Z,36.93
2019-01-21T14:14:48.002Z,38.70
2019-01-21T14:18:24.004Z,37.93
2019-01-21T14:21:33.429Z,38.17
2019-01-21T14:25:11.174Z,36.73
2019-01-21T14:28:42.053Z,39.70
2019-01-21T14:32:15.760Z,37.33
2019-01-21T14:35:41.900Z,45.37
2019-01-21T14:38:51.440Z,38.53
2019-01-21T14:42:12.573Z,35.77
2019-01-21T14:45:36.229Z,38.33
2019-01-21T14:49:17.133Z,42.97
2019-01-21T14:52:38.441Z,37.33
2019-01-21T14:56:12.689Z,38.83
2019-01-21T14:59:39.276Z,41.43
2019-01-21T15:03:07.729Z,41.60
2019-01-21T15:06:19.832Z,39.00
2019-01-21T15:09:57.976Z,40.63
2019-01-21T15:13:18.925Z,40.70
2019-01-21T15:16:33.969Z,47.77
2019-01-21T15:19:40.906Z,40.37
2019-01-21T15:23:04.367Z,43.13
2019-01-21T15:26:24.781Z,37.73
2019-01-21T15:29:51.556Z,38.03
2019-01-21T15:33:09.754Z,39.33
2019-01-21T15:36:24.404Z,36.57
2019-01-21T15:39:46.105Z,38.57
2019-01-21T15:43:11.673Z,41.77
2019-01-21T15:46:40.872Z,39.50
2019-01-21T15:49:56.121Z,38.20
2019-01-21T15:53:29.519Z,34.70
2019-01-21T15:57:28.935Z,37.23
2019-01-21T16:00:55.976Z,40.03
2019-01-21T16:04:08.504Z,37.30
2019-01-21T16:07:32.705Z,40.60
2019-01-21T16:11:11.823Z,41.17
2019-01-21T16:14:17.681Z,43.27
2019-01-21T16:17:42.074Z,39.20
2019-01-21T16:21:39.736Z,41.77
2019-01-21T16:25:03.133Z,40.77
2019-01-21T16:28:30.121Z,46.27
2019-01-21T16:31:34.632Z,45.10
2019-01-21T16:34:58.684Z,47.63
2019-01-21T16:38:08.077Z,47.50
2019-01-21T16:41:37.973Z,46.27
2019-01-21T16:44:45.171Z,51.93
2019-01-21T16:47:49.863Z,50.33
2019-01-21T16:50:54.309Z,46.73
2019-01-21T16:53:58.770Z,51.03
2019-01-21T16:57:03.540Z,44.23
2019-01-21T17:00:12.811Z,53.03
2019-01-21T17:03:17.248Z,49.53
2019-01-21T17:06:22.135Z,51.57
2019-01-21T17:09:26.589Z,52.03
2019-01-21T17:12:31.032Z,49.70
2019-01-21T17:15:35.811Z,50.60
2019-01-21T17:18:40.328Z,47.97
2019-01-21T17:21:45.087Z,53.73
2019-01-21T17:24:49.799Z,54.63
2019-01-21T17:27:54.242Z,49.97
2019-01-21T17:30:58.962Z,50.00
2019-01-21T17:34:03.690Z,48.13
2019-01-21T17:37:08.526Z,56.13
2019-01-21T17:40:17.884Z,49.73
2019-01-21T17:43:22.329Z,49.97
2019-01-21T17:46:27.114Z,51.53
2019-01-21T17:49:31.848Z,57.17
2019-01-21T17:52:36.575Z,57.97
2019-01-21T17:55:41.030Z,53.07
2019-01-21T17:58:45.733Z,52.23
2019-01-21T18:01:50.182Z,55.80
2019-01-21T18:04:54.637Z,51.67
2019-01-21T18:07:59.087Z,51.00
2019-01-21T18:11:04.519Z,49.97
2019-01-21T18:14:09.477Z,47.13
2019-01-21T18:17:13.947Z,52.83
2019-01-21T18:20:21.814Z,57.07
2019-01-21T18:23:26.547Z,52.17
2019-01-21T18:26:30.996Z,54.33
2019-01-21T18:29:35.434Z,51.40
2019-01-21T18:32:40.222Z,50.03
2019-01-21T18:35:44.674Z,54.17
2019-01-21T18:38:49.122Z,56.17
2019-01-21T18:41:53.773Z,52.60
2019-01-21T18:44:58.528Z,55.70
2019-01-21T18:48:03.365Z,64.07
2019-01-21T18:51:07.838Z,59.47
2019-01-21T18:54:12.524Z,63.43
2019-01-21T18:57:17.163Z,54.67
2019-01-21T19:00:24.208Z,55.93
2019-01-21T19:03:28.646Z,60.30
2019-01-21T19:06:33.386Z,59.27
2019-01-21T19:09:38.124Z,57.33
2019-01-21T19:12:42.589Z,55.63
2019-01-21T19:15:47.036Z,57.33
2019-01-21T19:18:51.480Z,57.70
2019-01-21T19:21:55.928Z,58.07
2019-01-21T19:25:00.370Z,62.37
2019-01-21T19:28:04.825Z,64.53
2019-01-21T19:31:09.278Z,64.00
2019-01-21T19:34:13.714Z,57.63
2019-01-21T19:37:18.451Z,60.77
2019-01-21T19:40:23.999Z,66.47
2019-01-21T19:43:28.440Z,60.57
2019-01-21T19:46:32.893Z,67.87
2019-01-21T19:49:37.331Z,68.97
2019-01-21T19:52:41.855Z,59.07
2019-01-21T19:55:46.305Z,62.90
2019-01-21T19:58:50.844Z,66.63
2019-01-21T20:01:55.314Z,65.00
2019-01-21T20:04:59.995Z,60.70
2019-01-21T20:08:04.446Z,65.20
2019-01-21T20:11:09.252Z,67.90
2019-01-21T20:14:13.693Z,61.43
2019-01-21T20:17:18.150Z,63.33
2019-01-21T20:20:35.994Z,61.17
2019-01-21T20:23:40.770Z,59.33
2019-01-21T20:26:45.218Z,60.33
2019-01-21T20:29:49.660Z,58.33
2019-01-21T20:32:54.507Z,57.90
2019-01-21T20:35:58.907Z,63.97
2019-01-21T20:39:05.010Z,59.63
2019-01-21T20:42:09.454Z,58.40
2019-01-21T20:45:14.710Z,60.50
2019-01-21T20:48:19.441Z,59.87
2019-01-21T20:51:23.888Z,57.50
2019-01-21T20:54:28.340Z,63.40
2019-01-21T20:57:32.788Z,53.07
2019-01-21T21:00:37.540Z,58.47
2019-01-21T21:03:42.274Z,63.13
2019-01-21T21:06:46.998Z,55.30
2019-01-21T21:09:51.456Z,62.07
2019-01-21T21:12:55.911Z,67.70
2019-01-21T21:16:00.685Z,65.27
2019-01-21T21:19:05.422Z,58.47
2019-01-21T21:22:10.140Z,65.67
2019-01-21T21:25:18.394Z,56.43
2019-01-21T21:28:22.850Z,64.87
2019-01-21T21:31:27.571Z,60.33
2019-01-21T21:34:32.343Z,62.93
2019-01-21T21:37:37.183Z,57.80
2019-01-21T21:40:41.912Z,63.17
2019-01-21T21:43:46.356Z,58.27
2019-01-21T21:46:51.063Z,59.33
2019-01-21T21:49:55.510Z,59.13
2019-01-21T21:53:00.238Z,66.57
2019-01-21T21:56:04.953Z,66.17
2019-01-21T21:59:09.398Z,62.60
2019-01-21T22:02:13.845Z,63.87
2019-01-21T22:05:19.435Z,68.97
2019-01-21T22:08:23.888Z,60.60
2019-01-21T22:11:28.332Z,57.47
2019-01-21T22:14:33.432Z,63.60
2019-01-21T22:17:38.162Z,57.57
2019-01-21T22:20:42.611Z,56.00
2019-01-21T22:23:47.080Z,56.93
2019-01-21T22:26:51.529Z,62.00
2019-01-21T22:29:55.974Z,54.07
2019-01-21T22:33:00.692Z,58.07
2019-01-21T22:36:05.940Z,63.50
2019-01-21T22:39:10.392Z,56.63
2019-01-21T22:42:15.093Z,63.53
2019-01-21T22:45:20.890Z,63.73
2019-01-21T22:48:25.346Z,60.80
2019-01-21T22:51:29.792Z,61.70
2019-01-21T22:54:34.242Z,61.87
2019-01-21T22:57:39.254Z,60.53
2019-01-21T23:00:50.144Z,59.30
2019-01-21T23:03:54.862Z,64.73
2019-01-21T23:06:59.620Z,57.30
2019-01-21T23:10:07.664Z,60.70
2019-01-21T23:13:12.114Z,59.07
2019-01-21T23:16:17.063Z,63.33
2019-01-21T23:19:21.515Z,63.20
2019-01-21T23:22:25.972Z,59.90
2019-01-21T23:25:30.430Z,58.17
2019-01-21T23:28:34.878Z,57.33
2019-01-21T23:31:39.621Z,63.87
2019-01-21T23:34:44.382Z,62.47
2019-01-21T23:37:49.260Z,64.53
2019-01-21T23:40:53.715Z,60.33
2019-01-21T23:43:58.172Z,58.50
2019-01-21T23:47:02.635Z,63.17
2019-01-21T23:50:16.323Z,62.73
2019-01-21T23:53:20.776Z,60.00
2019-01-21T23:56:25.534Z,58.60
2019-01-21T23:59:30.256Z,67.07
